sensor_id;sensor_type;location;lat;lon;timestamp;P1;durP1;ratioP1;P2;durP2;ratioP2
14098;SDS011;7126;48.458;7.930;2022-08-19T00:01:35;3.90;;;2.55;;
14098;SDS011;7126;48.458;7.930;2022-08-19T00:04:03;3.53;;;2.85;;
14098;SDS011;7126;48.458;7.930;2022-08-19T00:06:33;3.40;;;3.10;;
14098;SDS011;7126;48.458;7.930;2022-08-19T00:09:00;2.88;;;2.67;;
14098;SDS011;7126;48.458;7.930;2022-08-19T00:11:27;3.03;;;2.83;;
14098;SDS011;7126;48.458;7.930;2022-08-19T00:13:54;3.47;;;2.97;;
14098;SDS011;7126;48.458;7.930;2022-08-19T00:16:21;2.92;;;2.78;;
14098;SDS011;7126;48.458;7.930;2022-08-19T00:18:48;3.42;;;3.13;;
14098;SDS011;7126;48.458;7.930;2022-08-19T00:21:14;3.50;;;3.20;;
14098;SDS011;7126;48.458;7.930;2022-08-19T00:23:40;3.50;;;3.17;;
14098;SDS011;7126;48.458;7.930;2022-08-19T00:26:07;3.25;;;2.90;;
14098;SDS011;7126;48.458;7.930;2022-08-19T00:28:34;2.30;;;2.13;;
14098;SDS011;7126;48.458;7.930;2022-08-19T00:31:01;4.32;;;3.80;;
14098;SDS011;7126;48.458;7.930;2022-08-19T00:33:29;2.80;;;2.60;;
14098;SDS011;7126;48.458;7.930;2022-08-19T00:35:57;2.97;;;2.78;;
14098;SDS011;7126;48.458;7.930;2022-08-19T00:38:29;2.45;;;2.33;;
14098;SDS011;7126;48.458;7.930;2022-08-19T00:40:55;3.17;;;2.95;;
14098;SDS011;7126;48.458;7.930;2022-08-19T00:43:22;2.83;;;2.63;;
14098;SDS011;7126;48.458;7.930;2022-08-19T00:45:49;2.78;;;2.58;;
14098;SDS011;7126;48.458;7.930;2022-08-19T00:48:15;2.78;;;2.58;;
14098;SDS011;7126;48.458;7.930;2022-08-19T00:50:43;2.60;;;2.40;;
14098;SDS011;7126;48.458;7.930;2022-08-19T00:53:10;2.75;;;2.55;;
14098;SDS011;7126;48.458;7.930;2022-08-19T00:55:39;2.60;;;2.28;;
14098;SDS011;7126;48.458;7.930;2022-08-19T00:58:08;2.83;;;2.70;;
14098;SDS011;7126;48.458;7.930;2022-08-19T01:00:37;2.85;;;2.63;;
14098;SDS011;7126;48.458;7.930;2022-08-19T01:03:07;2.50;;;2.40;;
14098;SDS011;7126;48.458;7.930;2022-08-19T01:05:34;2.70;;;2.50;;
14098;SDS011;7126;48.458;7.930;2022-08-19T01:08:01;2.55;;;2.45;;
14098;SDS011;7126;48.458;7.930;2022-08-19T01:10:29;2.38;;;2.28;;
14098;SDS011;7126;48.458;7.930;2022-08-19T01:12:58;2.63;;;2.40;;
14098;SDS011;7126;48.458;7.930;2022-08-19T01:15:27;2.63;;;2.42;;
14098;SDS011;7126;48.458;7.930;2022-08-19T01:20:35;2.35;;;2.25;;
14098;SDS011;7126;48.458;7.930;2022-08-19T01:23:02;2.60;;;2.40;;
14098;SDS011;7126;48.458;7.930;2022-08-19T01:25:31;2.58;;;2.38;;
14098;SDS011;7126;48.458;7.930;2022-08-19T01:30:50;3.13;;;2.28;;
14098;SDS011;7126;48.458;7.930;2022-08-19T01:33:16;2.85;;;2.65;;
14098;SDS011;7126;48.458;7.930;2022-08-19T01:35:42;2.10;;;2.00;;
14098;SDS011;7126;48.458;7.930;2022-08-19T01:38:09;2.90;;;2.70;;
14098;SDS011;7126;48.458;7.930;2022-08-19T01:40:44;2.42;;;2.33;;
14098;SDS011;7126;48.458;7.930;2022-08-19T01:43:10;2.28;;;2.17;;
14098;SDS011;7126;48.458;7.930;2022-08-19T01:45:35;2.25;;;2.15;;
14098;SDS011;7126;48.458;7.930;2022-08-19T01:48:04;2.63;;;2.42;;
14098;SDS011;7126;48.458;7.930;2022-08-19T01:50:32;2.38;;;2.28;;
14098;SDS011;7126;48.458;7.930;2022-08-19T01:52:58;3.05;;;2.78;;
14098;SDS011;7126;48.458;7.930;2022-08-19T01:55:25;2.88;;;2.78;;
14098;SDS011;7126;48.458;7.930;2022-08-19T01:57:52;2.42;;;2.33;;
14098;SDS011;7126;48.458;7.930;2022-08-19T02:00:23;3.38;;;3.13;;
14098;SDS011;7126;48.458;7.930;2022-08-19T02:02:50;2.50;;;2.30;;
14098;SDS011;7126;48.458;7.930;2022-08-19T02:05:15;2.65;;;2.45;;
14098;SDS011;7126;48.458;7.930;2022-08-19T02:07:43;2.60;;;2.40;;
14098;SDS011;7126;48.458;7.930;2022-08-19T02:10:13;2.42;;;2.25;;
14098;SDS011;7126;48.458;7.930;2022-08-19T02:12:43;3.03;;;2.83;;
14098;SDS011;7126;48.458;7.930;2022-08-19T02:15:09;2.22;;;2.13;;
14098;SDS011;7126;48.458;7.930;2022-08-19T02:17:36;3.00;;;2.67;;
14098;SDS011;7126;48.458;7.930;2022-08-19T02:20:03;2.83;;;2.63;;
14098;SDS011;7126;48.458;7.930;2022-08-19T02:22:29;2.55;;;2.28;;
14098;SDS011;7126;48.458;7.930;2022-08-19T02:24:54;2.28;;;2.17;;
14098;SDS011;7126;48.458;7.930;2022-08-19T02:27:21;2.97;;;2.78;;
14098;SDS011;7126;48.458;7.930;2022-08-19T02:29:47;2.80;;;2.30;;
14098;SDS011;7126;48.458;7.930;2022-08-19T02:32:15;2.50;;;2.40;;
14098;SDS011;7126;48.458;7.930;2022-08-19T02:34:41;2.33;;;2.17;;
14098;SDS011;7126;48.458;7.930;2022-08-19T02:37:07;2.35;;;2.20;;
14098;SDS011;7126;48.458;7.930;2022-08-19T02:39:52;3.25;;;2.97;;
14098;SDS011;7126;48.458;7.930;2022-08-19T02:42:18;2.38;;;2.17;;
14098;SDS011;7126;48.458;7.930;2022-08-19T02:44:43;2.60;;;2.40;;
14098;SDS011;7126;48.458;7.930;2022-08-19T02:47:09;2.95;;;2.42;;
14098;SDS011;7126;48.458;7.930;2022-08-19T02:49:35;3.38;;;2.45;;
14098;SDS011;7126;48.458;7.930;2022-08-19T02:52:01;2.85;;;2.65;;
14098;SDS011;7126;48.458;7.930;2022-08-19T02:54:27;2.80;;;2.70;;
14098;SDS011;7126;48.458;7.930;2022-08-19T02:56:53;3.00;;;2.47;;
14098;SDS011;7126;48.458;7.930;2022-08-19T02:59:19;2.03;;;1.92;;
14098;SDS011;7126;48.458;7.930;2022-08-19T03:01:44;2.15;;;2.05;;
14098;SDS011;7126;48.458;7.930;2022-08-19T03:04:12;2.85;;;2.65;;
14098;SDS011;7126;48.458;7.930;2022-08-19T03:06:40;3.20;;;2.33;;
14098;SDS011;7126;48.458;7.930;2022-08-19T03:09:07;2.50;;;2.30;;
14098;SDS011;7126;48.458;7.930;2022-08-19T03:11:34;2.83;;;2.63;;
14098;SDS011;7126;48.458;7.930;2022-08-19T03:14:00;2.45;;;2.25;;
14098;SDS011;7126;48.458;7.930;2022-08-19T03:16:27;3.35;;;2.78;;
14098;SDS011;7126;48.458;7.930;2022-08-19T03:18:55;2.85;;;2.65;;
14098;SDS011;7126;48.458;7.930;2022-08-19T03:21:25;3.05;;;2.58;;
14098;SDS011;7126;48.458;7.930;2022-08-19T03:23:55;2.67;;;2.47;;
14098;SDS011;7126;48.458;7.930;2022-08-19T03:26:21;2.30;;;2.10;;
14098;SDS011;7126;48.458;7.930;2022-08-19T03:28:47;2.90;;;2.50;;
14098;SDS011;7126;48.458;7.930;2022-08-19T03:31:15;2.40;;;2.20;;
14098;SDS011;7126;48.458;7.930;2022-08-19T03:33:42;2.33;;;2.15;;
14098;SDS011;7126;48.458;7.930;2022-08-19T03:36:13;3.30;;;3.00;;
14098;SDS011;7126;48.458;7.930;2022-08-19T03:38:45;2.55;;;2.33;;
14098;SDS011;7126;48.458;7.930;2022-08-19T03:41:18;2.40;;;2.22;;
14098;SDS011;7126;48.458;7.930;2022-08-19T03:43:46;3.55;;;2.47;;
14098;SDS011;7126;48.458;7.930;2022-08-19T03:46:14;2.88;;;2.00;;
14098;SDS011;7126;48.458;7.930;2022-08-19T03:48:43;2.22;;;2.03;;
14098;SDS011;7126;48.458;7.930;2022-08-19T03:51:17;3.03;;;2.83;;
14098;SDS011;7126;48.458;7.930;2022-08-19T03:53:44;3.10;;;2.80;;
14098;SDS011;7126;48.458;7.930;2022-08-19T03:56:11;2.50;;;2.40;;
14098;SDS011;7126;48.458;7.930;2022-08-19T03:58:38;2.58;;;2.38;;
14098;SDS011;7126;48.458;7.930;2022-08-19T04:01:07;3.25;;;3.05;;
14098;SDS011;7126;48.458;7.930;2022-08-19T04:03:37;2.00;;;1.90;;
14098;SDS011;7126;48.458;7.930;2022-08-19T04:09:01;2.80;;;2.60;;
14098;SDS011;7126;48.458;7.930;2022-08-19T04:11:30;2.72;;;2.53;;
14098;SDS011;7126;48.458;7.930;2022-08-19T04:13:59;2.70;;;2.55;;
14098;SDS011;7126;48.458;7.930;2022-08-19T04:16:25;2.78;;;2.58;;
14098;SDS011;7126;48.458;7.930;2022-08-19T04:18:54;2.55;;;2.35;;
14098;SDS011;7126;48.458;7.930;2022-08-19T04:21:22;2.42;;;2.33;;
14098;SDS011;7126;48.458;7.930;2022-08-19T04:23:50;2.25;;;2.15;;
14098;SDS011;7126;48.458;7.930;2022-08-19T04:26:17;2.75;;;2.22;;
14098;SDS011;7126;48.458;7.930;2022-08-19T04:28:45;2.28;;;2.17;;
14098;SDS011;7126;48.458;7.930;2022-08-19T04:31:18;2.10;;;2.00;;
14098;SDS011;7126;48.458;7.930;2022-08-19T04:33:45;2.53;;;2.33;;
14098;SDS011;7126;48.458;7.930;2022-08-19T04:36:21;2.35;;;2.10;;
14098;SDS011;7126;48.458;7.930;2022-08-19T04:38:55;2.53;;;2.33;;
14098;SDS011;7126;48.458;7.930;2022-08-19T04:41:22;3.05;;;2.85;;
14098;SDS011;7126;48.458;7.930;2022-08-19T04:44:07;2.00;;;1.90;;
14098;SDS011;7126;48.458;7.930;2022-08-19T04:46:33;4.28;;;2.40;;
14098;SDS011;7126;48.458;7.930;2022-08-19T04:48:59;2.55;;;2.38;;
14098;SDS011;7126;48.458;7.930;2022-08-19T04:51:26;2.63;;;2.53;;
14098;SDS011;7126;48.458;7.930;2022-08-19T04:53:52;2.08;;;1.98;;
14098;SDS011;7126;48.458;7.930;2022-08-19T04:56:18;3.55;;;2.70;;
14098;SDS011;7126;48.458;7.930;2022-08-19T04:58:46;2.15;;;2.00;;
14098;SDS011;7126;48.458;7.930;2022-08-19T05:01:16;2.50;;;2.30;;
14098;SDS011;7126;48.458;7.930;2022-08-19T05:03:43;2.50;;;2.38;;
14098;SDS011;7126;48.458;7.930;2022-08-19T05:06:10;3.85;;;2.22;;
14098;SDS011;7126;48.458;7.930;2022-08-19T05:08:38;2.55;;;2.40;;
14098;SDS011;7126;48.458;7.930;2022-08-19T05:11:15;2.88;;;2.67;;
14098;SDS011;7126;48.458;7.930;2022-08-19T05:13:46;2.42;;;2.22;;
14098;SDS011;7126;48.458;7.930;2022-08-19T05:16:13;1.55;;;1.55;;
14098;SDS011;7126;48.458;7.930;2022-08-19T05:18:40;2.65;;;2.45;;
14098;SDS011;7126;48.458;7.930;2022-08-19T05:21:24;2.70;;;2.60;;
14098;SDS011;7126;48.458;7.930;2022-08-19T05:24:09;2.47;;;2.25;;
14098;SDS011;7126;48.458;7.930;2022-08-19T05:26:39;2.45;;;2.25;;
14098;SDS011;7126;48.458;7.930;2022-08-19T05:29:08;2.60;;;2.40;;
14098;SDS011;7126;48.458;7.930;2022-08-19T05:31:34;3.65;;;2.55;;
14098;SDS011;7126;48.458;7.930;2022-08-19T05:34:01;2.78;;;2.58;;
14098;SDS011;7126;48.458;7.930;2022-08-19T05:36:28;2.47;;;2.22;;
14098;SDS011;7126;48.458;7.930;2022-08-19T05:38:59;1.77;;;1.67;;
14098;SDS011;7126;48.458;7.930;2022-08-19T05:41:24;2.33;;;2.20;;
14098;SDS011;7126;48.458;7.930;2022-08-19T05:43:54;2.25;;;2.13;;
14098;SDS011;7126;48.458;7.930;2022-08-19T05:46:21;2.92;;;2.72;;
14098;SDS011;7126;48.458;7.930;2022-08-19T05:48:47;2.13;;;2.03;;
14098;SDS011;7126;48.458;7.930;2022-08-19T05:51:13;2.80;;;2.40;;
14098;SDS011;7126;48.458;7.930;2022-08-19T05:53:39;1.75;;;1.65;;
14098;SDS011;7126;48.458;7.930;2022-08-19T05:56:05;3.10;;;2.38;;
14098;SDS011;7126;48.458;7.930;2022-08-19T05:58:36;2.80;;;2.60;;
14098;SDS011;7126;48.458;7.930;2022-08-19T06:01:03;2.38;;;2.28;;
14098;SDS011;7126;48.458;7.930;2022-08-19T06:03:34;2.33;;;2.22;;
14098;SDS011;7126;48.458;7.930;2022-08-19T06:06:01;2.65;;;2.50;;
14098;SDS011;7126;48.458;7.930;2022-08-19T06:08:27;2.53;;;2.33;;
14098;SDS011;7126;48.458;7.930;2022-08-19T06:10:53;3.00;;;2.80;;
14098;SDS011;7126;48.458;7.930;2022-08-19T06:13:19;3.28;;;2.80;;
14098;SDS011;7126;48.458;7.930;2022-08-19T06:15:46;3.17;;;2.53;;
14098;SDS011;7126;48.458;7.930;2022-08-19T06:18:12;3.30;;;3.03;;
14098;SDS011;7126;48.458;7.930;2022-08-19T06:20:39;5.05;;;3.40;;
14098;SDS011;7126;48.458;7.930;2022-08-19T06:23:05;3.58;;;2.90;;
14098;SDS011;7126;48.458;7.930;2022-08-19T06:25:30;3.05;;;2.85;;
14098;SDS011;7126;48.458;7.930;2022-08-19T06:27:56;3.65;;;3.40;;
14098;SDS011;7126;48.458;7.930;2022-08-19T06:30:22;3.10;;;2.90;;
14098;SDS011;7126;48.458;7.930;2022-08-19T06:32:47;3.25;;;3.05;;
14098;SDS011;7126;48.458;7.930;2022-08-19T06:35:13;2.72;;;2.53;;
14098;SDS011;7126;48.458;7.930;2022-08-19T06:37:39;2.95;;;2.75;;
14098;SDS011;7126;48.458;7.930;2022-08-19T06:40:05;2.40;;;2.08;;
14098;SDS011;7126;48.458;7.930;2022-08-19T06:42:34;2.58;;;2.47;;
14098;SDS011;7126;48.458;7.930;2022-08-19T06:45:00;3.67;;;2.80;;
14098;SDS011;7126;48.458;7.930;2022-08-19T06:47:28;2.78;;;2.58;;
14098;SDS011;7126;48.458;7.930;2022-08-19T06:49:58;3.20;;;2.83;;
14098;SDS011;7126;48.458;7.930;2022-08-19T06:52:32;2.80;;;2.53;;
14098;SDS011;7126;48.458;7.930;2022-08-19T06:54:59;2.90;;;2.70;;
14098;SDS011;7126;48.458;7.930;2022-08-19T06:57:25;3.35;;;3.15;;
14098;SDS011;7126;48.458;7.930;2022-08-19T06:59:51;2.63;;;2.42;;
14098;SDS011;7126;48.458;7.930;2022-08-19T07:02:18;4.75;;;2.78;;
14098;SDS011;7126;48.458;7.930;2022-08-19T07:04:44;3.28;;;2.97;;
14098;SDS011;7126;48.458;7.930;2022-08-19T07:07:12;3.15;;;2.67;;
14098;SDS011;7126;48.458;7.930;2022-08-19T07:09:41;3.72;;;3.13;;
14098;SDS011;7126;48.458;7.930;2022-08-19T07:12:09;3.92;;;3.38;;
14098;SDS011;7126;48.458;7.930;2022-08-19T07:14:37;2.53;;;2.35;;
14098;SDS011;7126;48.458;7.930;2022-08-19T07:17:04;3.28;;;2.97;;
14098;SDS011;7126;48.458;7.930;2022-08-19T07:19:31;3.10;;;2.85;;
14098;SDS011;7126;48.458;7.930;2022-08-19T07:21:57;2.80;;;2.60;;
14098;SDS011;7126;48.458;7.930;2022-08-19T07:24:26;2.65;;;2.45;;
14098;SDS011;7126;48.458;7.930;2022-08-19T07:26:53;3.47;;;3.17;;
14098;SDS011;7126;48.458;7.930;2022-08-19T07:29:22;3.67;;;3.35;;
14098;SDS011;7126;48.458;7.930;2022-08-19T07:31:51;3.65;;;3.17;;
14098;SDS011;7126;48.458;7.930;2022-08-19T07:34:17;3.03;;;2.72;;
14098;SDS011;7126;48.458;7.930;2022-08-19T07:36:43;3.17;;;2.97;;
14098;SDS011;7126;48.458;7.930;2022-08-19T07:39:12;3.28;;;3.08;;
14098;SDS011;7126;48.458;7.930;2022-08-19T07:41:39;3.25;;;2.97;;
14098;SDS011;7126;48.458;7.930;2022-08-19T07:44:06;2.88;;;2.67;;
14098;SDS011;7126;48.458;7.930;2022-08-19T07:46:33;3.83;;;3.30;;
14098;SDS011;7126;48.458;7.930;2022-08-19T07:49:04;4.40;;;3.15;;
14098;SDS011;7126;48.458;7.930;2022-08-19T07:51:31;3.60;;;3.30;;
14098;SDS011;7126;48.458;7.930;2022-08-19T07:53:57;4.05;;;3.35;;
14098;SDS011;7126;48.458;7.930;2022-08-19T07:56:22;3.15;;;2.83;;
14098;SDS011;7126;48.458;7.930;2022-08-19T07:58:49;2.92;;;2.67;;
14098;SDS011;7126;48.458;7.930;2022-08-19T08:01:17;4.35;;;3.53;;
14098;SDS011;7126;48.458;7.930;2022-08-19T08:03:45;2.70;;;2.60;;
14098;SDS011;7126;48.458;7.930;2022-08-19T08:06:30;2.92;;;2.65;;
14098;SDS011;7126;48.458;7.930;2022-08-19T08:09:14;3.78;;;3.38;;
14098;SDS011;7126;48.458;7.930;2022-08-19T08:11:42;3.28;;;2.97;;
14098;SDS011;7126;48.458;7.930;2022-08-19T08:14:18;2.95;;;2.75;;
14098;SDS011;7126;48.458;7.930;2022-08-19T08:16:47;3.63;;;2.92;;
14098;SDS011;7126;48.458;7.930;2022-08-19T08:19:16;3.38;;;3.00;;
14098;SDS011;7126;48.458;7.930;2022-08-19T08:21:43;5.35;;;3.28;;
14098;SDS011;7126;48.458;7.930;2022-08-19T08:24:09;3.22;;;2.92;;
14098;SDS011;7126;48.458;7.930;2022-08-19T08:26:36;4.05;;;3.70;;
14098;SDS011;7126;48.458;7.930;2022-08-19T08:29:02;4.22;;;3.75;;
14098;SDS011;7126;48.458;7.930;2022-08-19T08:31:27;4.00;;;3.70;;
14098;SDS011;7126;48.458;7.930;2022-08-19T08:33:53;3.17;;;2.97;;
14098;SDS011;7126;48.458;7.930;2022-08-19T08:36:19;3.95;;;3.55;;
14098;SDS011;7126;48.458;7.930;2022-08-19T08:38:46;4.80;;;3.78;;
14098;SDS011;7126;48.458;7.930;2022-08-19T08:43:53;4.07;;;3.47;;
14098;SDS011;7126;48.458;7.930;2022-08-19T08:46:25;3.45;;;3.15;;
14098;SDS011;7126;48.458;7.930;2022-08-19T08:48:54;3.92;;;3.53;;
14098;SDS011;7126;48.458;7.930;2022-08-19T08:51:33;4.22;;;3.47;;
14098;SDS011;7126;48.458;7.930;2022-08-19T08:54:03;4.28;;;3.90;;
14098;SDS011;7126;48.458;7.930;2022-08-19T08:56:31;3.90;;;3.50;;
14098;SDS011;7126;48.458;7.930;2022-08-19T08:59:06;4.07;;;3.67;;
14098;SDS011;7126;48.458;7.930;2022-08-19T09:01:37;4.38;;;3.95;;
14098;SDS011;7126;48.458;7.930;2022-08-19T09:04:04;5.07;;;3.90;;
14098;SDS011;7126;48.458;7.930;2022-08-19T09:06:36;4.47;;;4.13;;
14098;SDS011;7126;48.458;7.930;2022-08-19T09:09:18;4.88;;;4.47;;
14098;SDS011;7126;48.458;7.930;2022-08-19T09:12:07;4.03;;;3.72;;
14098;SDS011;7126;48.458;7.930;2022-08-19T09:14:43;5.80;;;3.55;;
14098;SDS011;7126;48.458;7.930;2022-08-19T09:17:17;5.60;;;3.88;;
14098;SDS011;7126;48.458;7.930;2022-08-19T09:22:23;3.90;;;3.60;;
14098;SDS011;7126;48.458;7.930;2022-08-19T09:24:50;4.90;;;4.43;;
14098;SDS011;7126;48.458;7.930;2022-08-19T09:27:19;5.47;;;5.05;;
14098;SDS011;7126;48.458;7.930;2022-08-19T09:29:48;5.30;;;4.43;;
14098;SDS011;7126;48.458;7.930;2022-08-19T09:32:14;4.18;;;3.78;;
14098;SDS011;7126;48.458;7.930;2022-08-19T09:34:40;4.07;;;3.80;;
14098;SDS011;7126;48.458;7.930;2022-08-19T09:37:06;3.60;;;3.30;;
14098;SDS011;7126;48.458;7.930;2022-08-19T09:39:32;3.30;;;3.00;;
14098;SDS011;7126;48.458;7.930;2022-08-19T09:41:57;3.72;;;3.42;;
14098;SDS011;7126;48.458;7.930;2022-08-19T09:44:23;3.80;;;3.45;;
14098;SDS011;7126;48.458;7.930;2022-08-19T09:46:49;4.57;;;4.13;;
14098;SDS011;7126;48.458;7.930;2022-08-19T09:49:16;4.32;;;3.92;;
14098;SDS011;7126;48.458;7.930;2022-08-19T09:51:43;4.68;;;4.00;;
14098;SDS011;7126;48.458;7.930;2022-08-19T09:54:09;4.15;;;3.78;;
14098;SDS011;7126;48.458;7.930;2022-08-19T09:56:34;4.80;;;4.35;;
14098;SDS011;7126;48.458;7.930;2022-08-19T09:59:01;5.55;;;3.97;;
14098;SDS011;7126;48.458;7.930;2022-08-19T10:01:29;3.40;;;3.20;;
14098;SDS011;7126;48.458;7.930;2022-08-19T10:03:56;4.60;;;4.20;;
14098;SDS011;7126;48.458;7.930;2022-08-19T10:06:24;5.05;;;4.57;;
14098;SDS011;7126;48.458;7.930;2022-08-19T10:08:54;6.82;;;5.05;;
14098;SDS011;7126;48.458;7.930;2022-08-19T10:11:20;5.80;;;5.20;;
14098;SDS011;7126;48.458;7.930;2022-08-19T10:13:46;5.22;;;4.72;;
14098;SDS011;7126;48.458;7.930;2022-08-19T10:16:13;4.85;;;4.40;;
14098;SDS011;7126;48.458;7.930;2022-08-19T10:18:42;4.40;;;3.97;;
14098;SDS011;7126;48.458;7.930;2022-08-19T10:23:37;6.85;;;4.70;;
14098;SDS011;7126;48.458;7.930;2022-08-19T10:26:05;5.55;;;4.57;;
14098;SDS011;7126;48.458;7.930;2022-08-19T10:28:32;5.30;;;4.68;;
14098;SDS011;7126;48.458;7.930;2022-08-19T10:31:03;5.10;;;4.63;;
14098;SDS011;7126;48.458;7.930;2022-08-19T10:33:29;5.18;;;4.68;;
14098;SDS011;7126;48.458;7.930;2022-08-19T10:35:59;5.13;;;4.65;;
14098;SDS011;7126;48.458;7.930;2022-08-19T10:38:29;3.88;;;3.47;;
14098;SDS011;7126;48.458;7.930;2022-08-19T10:40:56;4.28;;;3.90;;
14098;SDS011;7126;48.458;7.930;2022-08-19T10:43:22;4.63;;;4.22;;
14098;SDS011;7126;48.458;7.930;2022-08-19T10:45:52;5.03;;;4.60;;
14098;SDS011;7126;48.458;7.930;2022-08-19T10:48:23;5.03;;;4.60;;
14098;SDS011;7126;48.458;7.930;2022-08-19T10:50:49;5.13;;;4.22;;
14098;SDS011;7126;48.458;7.930;2022-08-19T10:53:33;4.30;;;3.90;;
14098;SDS011;7126;48.458;7.930;2022-08-19T10:55:58;5.68;;;4.72;;
14098;SDS011;7126;48.458;7.930;2022-08-19T10:58:42;5.03;;;4.53;;
14098;SDS011;7126;48.458;7.930;2022-08-19T11:01:09;3.58;;;3.33;;
14098;SDS011;7126;48.458;7.930;2022-08-19T11:03:35;6.95;;;4.82;;
14098;SDS011;7126;48.458;7.930;2022-08-19T11:06:05;5.20;;;4.70;;
14098;SDS011;7126;48.458;7.930;2022-08-19T11:08:32;5.20;;;4.30;;
14098;SDS011;7126;48.458;7.930;2022-08-19T11:11:00;4.47;;;4.13;;
14098;SDS011;7126;48.458;7.930;2022-08-19T11:13:31;5.85;;;4.50;;
14098;SDS011;7126;48.458;7.930;2022-08-19T11:16:00;4.63;;;4.32;;
14098;SDS011;7126;48.458;7.930;2022-08-19T11:18:39;4.28;;;3.97;;
14098;SDS011;7126;48.458;7.930;2022-08-19T11:21:18;4.18;;;3.85;;
14098;SDS011;7126;48.458;7.930;2022-08-19T11:23:47;3.97;;;3.65;;
14098;SDS011;7126;48.458;7.930;2022-08-19T11:26:14;6.43;;;4.40;;
14098;SDS011;7126;48.458;7.930;2022-08-19T11:28:41;4.25;;;3.85;;
14098;SDS011;7126;48.458;7.930;2022-08-19T11:31:26;5.55;;;4.30;;
14098;SDS011;7126;48.458;7.930;2022-08-19T11:33:59;3.88;;;3.55;;
14098;SDS011;7126;48.458;7.930;2022-08-19T11:36:27;3.72;;;3.53;;
14098;SDS011;7126;48.458;7.930;2022-08-19T11:38:53;4.03;;;3.72;;
14098;SDS011;7126;48.458;7.930;2022-08-19T11:41:20;4.15;;;3.83;;
14098;SDS011;7126;48.458;7.930;2022-08-19T11:43:48;4.45;;;4.05;;
14098;SDS011;7126;48.458;7.930;2022-08-19T11:46:15;5.60;;;3.63;;
14098;SDS011;7126;48.458;7.930;2022-08-19T11:48:41;3.80;;;3.50;;
14098;SDS011;7126;48.458;7.930;2022-08-19T11:51:12;4.22;;;3.92;;
14098;SDS011;7126;48.458;7.930;2022-08-19T11:53:40;4.28;;;3.88;;
14098;SDS011;7126;48.458;7.930;2022-08-19T11:56:06;4.35;;;3.97;;
14098;SDS011;7126;48.458;7.930;2022-08-19T11:58:33;5.60;;;4.57;;
14098;SDS011;7126;48.458;7.930;2022-08-19T12:00:59;4.10;;;3.80;;
14098;SDS011;7126;48.458;7.930;2022-08-19T12:03:24;4.07;;;3.88;;
14098;SDS011;7126;48.458;7.930;2022-08-19T12:05:51;4.30;;;3.90;;
14098;SDS011;7126;48.458;7.930;2022-08-19T12:08:17;5.03;;;4.53;;
14098;SDS011;7126;48.458;7.930;2022-08-19T12:10:43;4.32;;;4.03;;
14098;SDS011;7126;48.458;7.930;2022-08-19T12:13:10;4.20;;;3.90;;
14098;SDS011;7126;48.458;7.930;2022-08-19T12:15:39;4.97;;;4.32;;
14098;SDS011;7126;48.458;7.930;2022-08-19T12:18:05;3.88;;;3.58;;
14098;SDS011;7126;48.458;7.930;2022-08-19T12:20:34;4.43;;;4.03;;
14098;SDS011;7126;48.458;7.930;2022-08-19T12:23:04;4.25;;;3.95;;
14098;SDS011;7126;48.458;7.930;2022-08-19T12:25:30;4.05;;;3.65;;
14098;SDS011;7126;48.458;7.930;2022-08-19T12:27:56;4.90;;;4.50;;
14098;SDS011;7126;48.458;7.930;2022-08-19T12:30:23;3.47;;;3.28;;
14098;SDS011;7126;48.458;7.930;2022-08-19T12:32:49;4.57;;;4.28;;
14098;SDS011;7126;48.458;7.930;2022-08-19T12:35:16;5.40;;;4.90;;
14098;SDS011;7126;48.458;7.930;2022-08-19T12:37:42;4.72;;;4.32;;
14098;SDS011;7126;48.458;7.930;2022-08-19T12:40:09;4.82;;;4.43;;
14098;SDS011;7126;48.458;7.930;2022-08-19T12:42:37;5.38;;;4.72;;
14098;SDS011;7126;48.458;7.930;2022-08-19T12:45:07;4.85;;;4.47;;
14098;SDS011;7126;48.458;7.930;2022-08-19T12:47:33;7.05;;;4.72;;
14098;SDS011;7126;48.458;7.930;2022-08-19T12:50:00;6.05;;;4.65;;
14098;SDS011;7126;48.458;7.930;2022-08-19T12:52:26;4.32;;;3.58;;
14098;SDS011;7126;48.458;7.930;2022-08-19T12:54:53;4.20;;;3.90;;
14098;SDS011;7126;48.458;7.930;2022-08-19T12:57:19;4.38;;;4.07;;
14098;SDS011;7126;48.458;7.930;2022-08-19T12:59:46;5.35;;;4.85;;
14098;SDS011;7126;48.458;7.930;2022-08-19T13:02:11;4.07;;;3.70;;
14098;SDS011;7126;48.458;7.930;2022-08-19T13:04:37;4.53;;;4.22;;
14098;SDS011;7126;48.458;7.930;2022-08-19T13:07:06;3.78;;;3.55;;
14098;SDS011;7126;48.458;7.930;2022-08-19T13:09:33;4.70;;;4.13;;
14098;SDS011;7126;48.458;7.930;2022-08-19T13:11:59;3.88;;;3.58;;
14098;SDS011;7126;48.458;7.930;2022-08-19T13:14:28;4.97;;;4.57;;
14098;SDS011;7126;48.458;7.930;2022-08-19T13:16:55;4.03;;;3.72;;
14098;SDS011;7126;48.458;7.930;2022-08-19T13:19:22;4.05;;;3.75;;
14098;SDS011;7126;48.458;7.930;2022-08-19T13:21:49;3.95;;;3.67;;
14098;SDS011;7126;48.458;7.930;2022-08-19T13:24:16;3.42;;;3.22;;
14098;SDS011;7126;48.458;7.930;2022-08-19T13:26:41;4.43;;;4.13;;
14098;SDS011;7126;48.458;7.930;2022-08-19T13:29:07;4.00;;;3.55;;
14098;SDS011;7126;48.458;7.930;2022-08-19T13:31:51;4.03;;;3.75;;
14098;SDS011;7126;48.458;7.930;2022-08-19T13:34:35;4.38;;;4.07;;
14098;SDS011;7126;48.458;7.930;2022-08-19T13:37:02;3.88;;;3.67;;
14098;SDS011;7126;48.458;7.930;2022-08-19T13:39:29;3.95;;;3.72;;
14098;SDS011;7126;48.458;7.930;2022-08-19T13:41:57;4.75;;;4.35;;
14098;SDS011;7126;48.458;7.930;2022-08-19T13:44:24;4.50;;;4.20;;
14098;SDS011;7126;48.458;7.930;2022-08-19T13:46:51;3.80;;;3.60;;
14098;SDS011;7126;48.458;7.930;2022-08-19T13:49:18;4.45;;;4.18;;
14098;SDS011;7126;48.458;7.930;2022-08-19T13:51:45;4.03;;;3.72;;
14098;SDS011;7126;48.458;7.930;2022-08-19T13:54:11;4.10;;;3.75;;
14098;SDS011;7126;48.458;7.930;2022-08-19T13:56:42;3.67;;;3.47;;
14098;SDS011;7126;48.458;7.930;2022-08-19T13:59:09;3.35;;;3.15;;
14098;SDS011;7126;48.458;7.930;2022-08-19T14:01:35;4.43;;;4.03;;
14098;SDS011;7126;48.458;7.930;2022-08-19T14:04:02;4.05;;;3.85;;
14098;SDS011;7126;48.458;7.930;2022-08-19T14:06:28;4.40;;;4.10;;
14098;SDS011;7126;48.458;7.930;2022-08-19T14:08:54;3.22;;;3.03;;
14098;SDS011;7126;48.458;7.930;2022-08-19T14:11:20;4.00;;;3.70;;
14098;SDS011;7126;48.458;7.930;2022-08-19T14:13:47;4.28;;;3.92;;
14098;SDS011;7126;48.458;7.930;2022-08-19T14:16:14;3.55;;;3.35;;
14098;SDS011;7126;48.458;7.930;2022-08-19T14:18:40;3.92;;;3.58;;
14098;SDS011;7126;48.458;7.930;2022-08-19T14:21:06;3.58;;;3.35;;
14098;SDS011;7126;48.458;7.930;2022-08-19T14:23:33;4.25;;;3.95;;
14098;SDS011;7126;48.458;7.930;2022-08-19T14:26:07;2.95;;;2.75;;
14098;SDS011;7126;48.458;7.930;2022-08-19T14:28:34;3.35;;;3.15;;
14098;SDS011;7126;48.458;7.930;2022-08-19T14:31:00;3.80;;;3.60;;
14098;SDS011;7126;48.458;7.930;2022-08-19T14:33:26;3.47;;;3.28;;
14098;SDS011;7126;48.458;7.930;2022-08-19T14:35:51;3.08;;;2.88;;
14098;SDS011;7126;48.458;7.930;2022-08-19T14:38:17;3.25;;;3.13;;
14098;SDS011;7126;48.458;7.930;2022-08-19T14:40:44;3.70;;;3.50;;
14098;SDS011;7126;48.458;7.930;2022-08-19T14:43:10;3.40;;;3.20;;
14098;SDS011;7126;48.458;7.930;2022-08-19T14:45:37;3.90;;;3.60;;
14098;SDS011;7126;48.458;7.930;2022-08-19T14:48:05;4.25;;;3.85;;
14098;SDS011;7126;48.458;7.930;2022-08-19T14:50:32;3.88;;;3.58;;
14098;SDS011;7126;48.458;7.930;2022-08-19T14:53:00;3.40;;;3.20;;
14098;SDS011;7126;48.458;7.930;2022-08-19T14:55:28;3.50;;;3.30;;
14098;SDS011;7126;48.458;7.930;2022-08-19T14:57:53;3.85;;;3.60;;
14098;SDS011;7126;48.458;7.930;2022-08-19T15:00:19;4.70;;;3.22;;
14098;SDS011;7126;48.458;7.930;2022-08-19T15:02:44;3.88;;;3.08;;
14098;SDS011;7126;48.458;7.930;2022-08-19T15:05:10;3.30;;;3.10;;
14098;SDS011;7126;48.458;7.930;2022-08-19T15:07:37;3.58;;;3.35;;
14098;SDS011;7126;48.458;7.930;2022-08-19T15:10:04;3.58;;;3.38;;
14098;SDS011;7126;48.458;7.930;2022-08-19T15:12:34;3.33;;;3.13;;
14098;SDS011;7126;48.458;7.930;2022-08-19T15:15:00;3.70;;;3.50;;
14098;SDS011;7126;48.458;7.930;2022-08-19T15:17:26;3.60;;;3.40;;
14098;SDS011;7126;48.458;7.930;2022-08-19T15:19:52;3.22;;;3.08;;
14098;SDS011;7126;48.458;7.930;2022-08-19T15:22:17;3.72;;;3.45;;